Time;durP1;ratioP1;P1;durP2;ratioP2;P2;SDS_P1;SDS_P2;PMS_P1;PMS_P2;Temp;Humidity;BMP_temperature;BMP_pressure;BME280_temperature;BME280_humidity;BME280_pressure;Samples;Min_cycle;Max_cycle;Signal;HPM_P1;HPM_P2
2023/02/05 00:02:07;;;;;;;7.05;5.15;;;2.60;71.20;;;;;;4928671;29;20035;-75
2023/02/05 00:04:37;;;;;;;6.50;5.25;;;2.70;72.00;;;;;;4914813;29;20051;-75
2023/02/05 00:07:05;;;;;;;5.53;4.95;;;2.70;69.90;;;;;;4927705;29;20557;-72
2023/02/05 00:09:35;;;;;;;5.68;4.90;;;2.80;70.80;;;;;;4918360;29;20122;-72
2023/02/05 00:12:05;;;;;;;5.47;4.50;;;2.70;70.60;;;;;;4921692;29;20044;-71
2023/02/05 00:14:32;;;;;;;5.20;4.70;;;2.50;70.00;;;;;;4927573;29;20550;-72
2023/02/05 00:17:01;;;;;;;6.07;4.93;;;2.50;70.00;;;;;;4928436;29;20067;-70
2023/02/05 00:19:28;;;;;;;6.38;4.63;;;2.60;70.10;;;;;;4905816;29;20131;-74
2023/02/05 00:21:55;;;;;;;5.53;4.57;;;2.50;70.50;;;;;;4909219;29;20427;-73
2023/02/05 00:24:22;;;;;;;5.90;5.30;;;2.40;70.70;;;;;;4915143;29;20044;-72
2023/02/05 00:26:51;;;;;;;5.63;4.88;;;2.40;71.10;;;;;;4919089;29;20056;-71
2023/02/05 00:29:18;;;;;;;5.82;5.20;;;2.50;71.40;;;;;;4925098;29;20043;-71
2023/02/05 00:31:48;;;;;;;5.35;4.85;;;2.60;71.00;;;;;;4908058;29;20091;-73
2023/02/05 00:34:16;;;;;;;5.32;4.82;;;2.60;71.60;;;;;;4923888;29;20147;-74
2023/02/05 00:36:43;;;;;;;7.93;4.93;;;2.70;71.10;;;;;;4925130;29;20440;-73
2023/02/05 00:39:12;;;;;;;6.55;4.40;;;2.70;70.30;;;;;;4918510;29;20044;-74
2023/02/05 00:41:40;;;;;;;6.20;4.78;;;2.80;70.80;;;;;;4930853;29;20036;-73
2023/02/05 00:44:07;;;;;;;5.93;5.05;;;2.60;71.30;;;;;;4925148;29;20058;-74
2023/02/05 00:46:34;;;;;;;5.68;4.60;;;2.60;70.20;;;;;;4940720;29;20055;-73
2023/02/05 00:49:02;;;;;;;5.10;4.65;;;2.60;68.70;;;;;;4920703;29;20040;-72
2023/02/05 00:51:29;;;;;;;4.72;4.18;;;2.60;68.30;;;;;;4918660;29;20090;-73
2023/02/05 00:53:56;;;;;;;4.50;4.10;;;2.50;68.70;;;;;;4928131;29;20047;-72
2023/02/05 00:56:23;;;;;;;5.10;4.60;;;2.40;68.80;;;;;;4936179;29;20040;-71
2023/02/05 00:58:51;;;;;;;5.53;5.00;;;2.40;68.80;;;;;;4911213;29;20076;-73
2023/02/05 01:01:18;;;;;;;6.38;4.90;;;2.50;68.90;;;;;;4937085;29;20043;-73
2023/02/05 01:03:45;;;;;;;5.43;4.75;;;2.50;69.30;;;;;;4931866;29;20056;-71
2023/02/05 01:06:13;;;;;;;5.25;4.75;;;2.50;68.70;;;;;;4898443;29;20044;-74
2023/02/05 01:08:40;;;;;;;5.82;4.90;;;2.50;69.00;;;;;;4898427;29;20689;-74
2023/02/05 01:11:09;;;;;;;5.32;4.82;;;2.50;69.00;;;;;;4898343;29;20158;-72
2023/02/05 01:13:38;;;;;;;5.20;4.70;;;2.40;68.90;;;;;;4917488;29;20067;-73
2023/02/05 01:16:09;;;;;;;5.43;4.93;;;2.40;68.80;;;;;;4914346;29;20048;-73
2023/02/05 01:18:37;;;;;;;5.35;4.68;;;2.50;68.70;;;;;;4901014;29;20508;-75
2023/02/05 01:21:04;;;;;;;5.25;4.75;;;2.60;68.00;;;;;;4899548;29;20059;-73
2023/02/05 01:23:32;;;;;;;5.45;4.95;;;2.40;67.20;;;;;;4944117;29;20052;-74
2023/02/05 01:26:00;;;;;;;4.90;4.40;;;2.50;67.80;;;;;;4887766;29;20052;-78
2023/02/05 01:28:27;;;;;;;5.30;4.80;;;2.50;67.20;;;;;;4906999;29;20480;-73
2023/02/05 01:30:54;;;;;;;5.18;4.60;;;2.60;67.30;;;;;;4919856;29;20052;-75
2023/02/05 01:33:22;;;;;;;5.65;4.65;;;2.50;67.60;;;;;;4902561;29;20570;-71
2023/02/05 01:35:49;;;;;;;5.65;4.65;;;2.60;68.20;;;;;;4916363;29;20056;-73
2023/02/05 01:38:16;;;;;;;5.35;4.50;;;2.60;67.90;;;;;;4937695;29;20071;-74
2023/02/05 01:40:43;;;;;;;6.22;4.70;;;2.50;67.50;;;;;;4927960;29;20047;-73
2023/02/05 01:43:15;;;;;;;6.07;5.13;;;2.60;67.70;;;;;;4910485;29;20035;-72
2023/02/05 01:45:50;;;;;;;6.85;4.82;;;2.40;67.10;;;;;;4929129;29;20046;-72
2023/02/05 01:48:23;;;;;;;5.35;4.80;;;2.30;66.50;;;;;;4942141;23;20177;-72
2023/02/05 01:50:58;;;;;;;5.38;4.88;;;2.50;66.10;;;;;;4953335;28;20071;-73
2023/02/05 01:53:29;;;;;;;5.40;4.90;;;2.20;68.40;;;;;;4925582;29;20050;-70
2023/02/05 01:55:58;;;;;;;4.80;4.30;;;1.90;70.80;;;;;;4955413;29;20420;-72
2023/02/05 01:58:31;;;;;;;5.07;4.57;;;2.20;67.10;;;;;;4952882;29;20114;-71
2023/02/05 02:00:59;;;;;;;5.30;4.80;;;2.30;65.00;;;;;;4937587;29;20047;-72
2023/02/05 02:03:30;;;;;;;6.13;4.90;;;2.20;65.50;;;;;;4954721;29;20105;-73
2023/02/05 02:05:57;;;;;;;;;;;2.30;64.80;;;;;;4931336;29;20558;-74
2023/02/05 02:08:25;;;;;;;6.03;4.60;;;2.10;64.90;;;;;;4949619;29;19922;-71
2023/02/05 02:10:56;;;;;;;5.40;4.90;;;1.80;64.30;;;;;;4937758;29;20975;-70
2023/02/05 02:13:26;;;;;;;5.15;4.65;;;1.90;63.30;;;;;;4913424;28;20143;-72
2023/02/05 02:15:54;;;;;;;5.63;4.68;;;2.00;63.70;;;;;;4936157;29;20054;-71
2023/02/05 02:18:26;;;;;;;7.50;4.78;;;1.60;64.40;;;;;;4954423;29;20039;-70
2023/02/05 02:21:14;;;;;;;5.10;4.60;;;1.80;65.00;;;;;;4934323;29;20040;-72
2023/02/05 02:23:58;;;;;;;5.53;4.90;;;1.90;63.70;;;;;;4928705;29;20073;-73
2023/02/05 02:26:44;;;;;;;5.28;4.78;;;2.10;62.40;;;;;;4940694;29;20031;-72
2023/02/05 02:29:46;;;;;;;4.97;4.50;;;2.00;62.80;;;;;;4924721;29;20054;-72
2023/02/05 02:32:22;;;;;;;4.93;4.43;;;2.00;61.20;;;;;;4920133;29;20051;-73
2023/02/05 02:34:59;;;;;;;5.00;4.47;;;2.00;61.50;;;;;;4902181;29;20044;-73
2023/02/05 02:37:44;;;;;;;5.20;4.70;;;2.00;61.50;;;;;;4923784;29;20640;-73
2023/02/05 02:40:24;;;;;;;6.72;4.70;;;2.00;61.10;;;;;;4917880;29;20052;-71
2023/02/05 02:43:02;;;;;;;5.20;4.70;;;1.90;60.50;;;;;;4920177;29;20055;-71
2023/02/05 02:45:34;;;;;;;5.57;5.00;;;1.90;59.70;;;;;;4933643;29;20048;-71
2023/02/05 02:48:04;;;;;;;4.88;4.47;;;1.90;58.90;;;;;;4919761;29;20440;-71
2023/02/05 02:50:39;;;;;;;4.63;4.23;;;1.80;59.10;;;;;;4943170;29;20047;-72
2023/02/05 02:53:21;;;;;;;5.10;4.60;;;1.80;58.90;;;;;;4921898;29;20047;-70
2023/02/05 02:55:49;;;;;;;5.40;4.90;;;1.80;59.50;;;;;;4940419;29;20091;-72
2023/02/05 02:58:30;;;;;;;5.20;4.70;;;1.90;59.70;;;;;;4903183;29;20055;-74
2023/02/05 03:01:00;;;;;;;5.35;4.63;;;1.80;59.20;;;;;;4901652;29;20496;-72
2023/02/05 03:03:31;;;;;;;5.35;4.85;;;1.70;58.40;;;;;;4918516;29;20111;-71
2023/02/05 03:06:02;;;;;;;8.27;4.60;;;1.70;58.80;;;;;;4924166;29;20043;-72
2023/02/05 03:08:43;;;;;;;5.97;5.00;;;1.70;59.00;;;;;;4918548;29;20124;-72
2023/02/05 03:11:14;;;;;;;4.80;4.40;;;1.90;59.50;;;;;;4910789;29;20440;-73
2023/02/05 03:13:43;;;;;;;8.73;4.50;;;1.70;59.50;;;;;;4904094;29;20138;-74
2023/02/05 03:16:12;;;;;;;5.60;4.57;;;1.60;59.10;;;;;;4911373;29;20455;-72
2023/02/05 03:18:40;;;;;;;5.20;4.63;;;1.60;59.00;;;;;;4902879;29;20062;-71
2023/02/05 03:21:43;;;;;;;4.95;4.45;;;1.50;59.60;;;;;;4924101;29;20527;-72
2023/02/05 03:24:11;;;;;;;4.60;4.20;;;1.60;59.50;;;;;;4887745;29;20055;-73
2023/02/05 03:26:39;;;;;;;5.53;5.03;;;1.60;60.00;;;;;;4904738;29;20047;-72
2023/02/05 03:29:10;;;;;;;5.28;4.43;;;1.80;60.40;;;;;;4924252;29;20532;-73
2023/02/05 03:32:24;;;;;;;4.60;4.20;;;1.70;59.50;;;;;;4918400;29;20039;-73
2023/02/05 03:35:12;;;;;;;4.82;4.43;;;1.60;60.20;;;;;;4905335;29;20044;-73
2023/02/05 03:37:41;;;;;;;5.10;4.60;;;1.60;59.80;;;;;;4906876;29;20115;-71
2023/02/05 03:41:00;;;;;;;4.90;4.40;;;1.60;59.90;;;;;;4933278;29;20546;-74
2023/02/05 03:43:58;;;;;;;5.53;4.40;;;1.50;59.60;;;;;;4872072;29;20049;-73
2023/02/05 03:46:56;;;;;;;9.25;4.43;;;1.40;60.30;;;;;;4845324;29;20045;-72
2023/02/05 03:49:32;;;;;;;4.60;4.20;;;1.50;59.90;;;;;;4895717;29;20134;-72
2023/02/05 03:52:07;;;;;;;4.97;4.50;;;1.50;59.70;;;;;;4915696;29;20385;-72
2023/02/05 03:55:13;;;;;;;5.10;4.60;;;1.80;59.60;;;;;;4897178;29;20116;-73
2023/02/05 03:57:53;;;;;;;6.85;4.50;;;1.70;59.50;;;;;;4903356;29;20060;-73
2023/02/05 04:00:21;;;;;;;6.35;4.43;;;1.60;59.70;;;;;;4899066;29;20036;-74
2023/02/05 04:02:48;;;;;;;5.68;4.63;;;1.50;59.10;;;;;;4923173;29;20060;-72
2023/02/05 04:05:16;;;;;;;4.90;4.40;;;1.60;60.00;;;;;;4914512;29;20433;-71
2023/02/05 04:07:43;;;;;;;5.55;4.90;;;1.60;59.50;;;;;;4907188;29;20036;-72
2023/02/05 04:10:10;;;;;;;5.10;4.60;;;1.50;60.00;;;;;;4898301;29;20052;-73
2023/02/05 04:12:37;;;;;;;4.95;4.45;;;1.50;60.10;;;;;;4919515;29;20107;-73
2023/02/05 04:15:07;;;;;;;4.50;4.10;;;1.50;59.70;;;;;;4909770;29;20051;-73
2023/02/05 04:17:35;;;;;;;5.00;4.60;;;1.40;60.60;;;;;;4929379;29;20054;-74
2023/02/05 04:20:03;;;;;;;5.38;4.88;;;1.30;60.50;;;;;;4918639;29;20088;-71
2023/02/05 04:22:30;;;;;;;6.20;4.85;;;1.00;59.90;;;;;;4921368;29;20044;-73
2023/02/05 04:24:57;;;;;;;5.13;4.63;;;1.30;59.80;;;;;;4901556;29;20115;-73
2023/02/05 04:27:25;;;;;;;5.78;4.65;;;1.30;60.40;;;;;;4914235;29;20396;-73
2023/02/05 04:29:52;;;;;;;5.78;5.18;;;1.40;60.20;;;;;;4923008;29;20166;-72
2023/02/05 04:32:19;;;;;;;5.05;4.38;;;1.40;60.10;;;;;;4921747;29;20048;-72
2023/02/05 04:34:46;;;;;;;5.30;4.80;;;1.30;59.90;;;;;;4899550;29;20063;-72
2023/02/05 04:37:13;;;;;;;5.60;4.78;;;1.30;60.00;;;;;;4916862;29;20036;-73
2023/02/05 04:39:40;;;;;;;5.32;4.82;;;1.20;59.80;;;;;;4915108;29;20475;-72
2023/02/05 04:42:08;;;;;;;5.03;4.63;;;1.30;60.40;;;;;;4914425;29;20100;-71
2023/02/05 04:44:35;;;;;;;5.18;4.63;;;1.30;60.80;;;;;;4914854;29;20040;-72
2023/02/05 04:47:02;;;;;;;4.97;4.47;;;1.30;60.10;;;;;;4898371;29;20416;-71
2023/02/05 04:49:31;;;;;;;5.45;4.70;;;1.50;60.20;;;;;;4917046;29;20056;-72
2023/02/05 04:51:58;;;;;;;5.88;4.85;;;1.40;60.20;;;;;;4901443;29;20442;-72
2023/02/05 04:54:27;;;;;;;5.70;5.05;;;1.40;60.20;;;;;;4921179;29;20047;-72
2023/02/05 04:56:54;;;;;;;5.10;4.60;;;1.40;60.10;;;;;;4977967;23;20542;-73
2023/02/05 04:59:22;;;;;;;5.38;4.82;;;0.80;58.20;;;;;;4975663;28;20110;-72
2023/02/05 05:01:49;;;;;;;5.32;4.80;;;1.00;59.80;;;;;;4959439;28;20059;-72
2023/02/05 05:04:16;;;;;;;5.43;4.78;;;1.20;59.80;;;;;;4975947;28;20081;-73
2023/02/05 05:06:43;;;;;;;7.10;4.50;;;1.20;60.10;;;;;;4958289;28;20066;-75
2023/02/05 05:09:11;;;;;;;5.82;4.95;;;1.20;60.20;;;;;;4958462;28;20738;-73
2023/02/05 05:11:38;;;;;;;5.25;4.75;;;1.10;60.70;;;;;;4939496;23;20418;-73
2023/02/05 05:14:05;;;;;;;6.18;4.35;;;1.00;60.20;;;;;;4938219;29;20063;-72
2023/02/05 05:16:32;;;;;;;5.60;5.10;;;1.00;60.90;;;;;;4942657;29;20048;-72
2023/02/05 05:18:59;;;;;;;4.68;4.20;;;1.20;61.50;;;;;;4905067;29;20051;-71
2023/02/05 05:21:30;;;;;;;5.32;4.82;;;0.90;60.80;;;;;;4920608;29;20044;-73
2023/02/05 05:23:57;;;;;;;5.32;4.82;;;0.60;60.20;;;;;;4937577;29;20044;-73
2023/02/05 05:26:24;;;;;;;6.70;4.90;;;0.80;61.40;;;;;;4920280;29;20051;-72
2023/02/05 05:28:55;;;;;;;4.90;4.50;;;0.60;61.20;;;;;;4936871;29;20043;-73
2023/02/05 05:31:23;;;;;;;5.07;4.50;;;0.80;61.40;;;;;;4937312;29;20470;-72
2023/02/05 05:33:50;;;;;;;6.07;5.32;;;0.70;62.70;;;;;;4936983;29;20048;-72
2023/02/05 05:36:17;;;;;;;6.50;4.43;;;0.80;61.90;;;;;;4937148;29;20043;-71
2023/02/05 05:38:45;;;;;;;5.25;4.75;;;0.80;62.50;;;;;;4936788;29;20517;-72
2023/02/05 05:44:09;;;;;;;5.75;5.00;;;0.80;63.10;;;;;;4925852;29;20416;-72
2023/02/05 05:46:36;;;;;;;5.18;4.68;;;0.50;62.40;;;;;;4936799;29;20111;-72
2023/02/05 05:49:03;;;;;;;5.70;5.05;;;0.80;63.10;;;;;;4920226;29;20079;-71
2023/02/05 05:51:31;;;;;;;5.18;4.63;;;0.90;62.50;;;;;;4919936;29;20106;-73
2023/02/05 05:53:59;;;;;;;7.75;4.40;;;0.80;63.40;;;;;;4904537;29;20094;-72
2023/02/05 05:56:26;;;;;;;8.50;6.03;;;1.10;65.40;;;;;;4920027;29;20047;-75
2023/02/05 05:58:53;;;;;;;5.28;4.78;;;0.50;65.10;;;;;;4919927;29;20638;-72
2023/02/05 06:01:23;;;;;;;6.00;4.68;;;0.60;66.00;;;;;;4900456;29;20059;-76
2023/02/05 06:03:52;;;;;;;5.75;5.03;;;0.60;63.90;;;;;;4931560;29;20039;-74
2023/02/05 06:06:20;;;;;;;5.50;4.80;;;0.20;65.90;;;;;;4904330;29;20460;-74
2023/02/05 06:08:47;;;;;;;6.13;4.43;;;0.50;65.10;;;;;;4906952;29;20111;-74
2023/02/05 06:11:17;;;;;;;7.57;4.97;;;0.20;66.00;;;;;;4894403;29;20436;-73
2023/02/05 06:13:45;;;;;;;5.47;4.97;;;0.20;67.60;;;;;;4917150;29;20047;-74
2023/02/05 06:16:15;;;;;;;4.97;4.57;;;0.40;65.50;;;;;;4923963;29;20078;-74
2023/02/05 06:18:42;;;;;;;5.53;4.60;;;0.30;65.70;;;;;;4935677;29;20039;-74
2023/02/05 06:21:09;;;;;;;6.85;5.18;;;0.40;65.70;;;;;;4903856;29;20059;-74
2023/02/05 06:23:37;;;;;;;5.22;4.72;;;0.40;65.60;;;;;;4901864;29;20047;-74
2023/02/05 06:26:04;;;;;;;5.72;5.10;;;0.60;65.00;;;;;;4919327;29;20146;-72
2023/02/05 06:28:31;;;;;;;5.72;4.72;;;-0.10;66.60;;;;;;4917856;29;20050;-73
2023/02/05 06:31:01;;;;;;;7.85;5.93;;;-0.20;68.80;;;;;;4903422;29;20079;-75
2023/02/05 06:33:32;;;;;;;6.38;4.95;;;0.20;69.40;;;;;;4908504;29;20395;-73
2023/02/05 06:36:05;;;;;;;7.60;5.05;;;0.40;68.20;;;;;;4918731;29;20044;-73
2023/02/05 06:38:32;;;;;;;5.50;4.85;;;0.30;66.90;;;;;;4903206;29;20052;-73
2023/02/05 06:41:00;;;;;;;7.20;5.07;;;0.30;69.20;;;;;;4918872;29;20060;-74
2023/02/05 06:43:28;;;;;;;5.20;4.70;;;0.10;70.30;;;;;;4934871;29;21841;-73
2023/02/05 06:45:55;;;;;;;5.47;4.97;;;0.10;70.60;;;;;;4903016;29;20664;-73
2023/02/05 06:48:22;;;;;;;5.25;4.82;;;-0.20;72.50;;;;;;4903035;29;20040;-73
2023/02/05 06:50:52;;;;;;;6.80;5.05;;;-0.50;73.00;;;;;;4902666;29;20059;-74
2023/02/05 06:53:22;;;;;;;6.22;5.10;;;-0.40;72.60;;;;;;4900265;29;20058;-74
2023/02/05 06:55:50;;;;;;;5.22;4.75;;;-0.40;71.50;;;;;;4911163;29;20052;-73
2023/02/05 06:58:17;;;;;;;4.93;4.45;;;-0.40;71.80;;;;;;4935382;29;20403;-72
2023/02/05 07:00:45;;;;;;;5.45;4.95;;;-0.50;72.50;;;;;;4918906;29;20059;-72
2023/02/05 07:03:12;;;;;;;5.63;5.13;;;-0.50;73.30;;;;;;4903090;29;20056;-73
2023/02/05 07:05:39;;;;;;;6.70;5.00;;;-0.60;74.00;;;;;;4918097;29;20075;-74
2023/02/05 07:08:07;;;;;;;5.00;4.60;;;-0.30;71.20;;;;;;4903221;29;20047;-72
2023/02/05 07:10:37;;;;;;;5.25;4.75;;;-0.30;71.90;;;;;;4906849;29;20083;-73
2023/02/05 07:13:04;;;;;;;6.10;5.30;;;-0.40;71.60;;;;;;4921666;29;20051;-75
2023/02/05 07:15:35;;;;;;;5.03;4.53;;;0.00;70.90;;;;;;4903147;29;20059;-74
2023/02/05 07:18:03;;;;;;;7.53;4.57;;;-0.10;70.80;;;;;;4930752;29;20102;-74
2023/02/05 07:20:31;;;;;;;5.25;4.75;;;0.30;68.50;;;;;;4930329;29;20122;-72
2023/02/05 07:22:59;;;;;;;5.40;4.90;;;0.00;67.70;;;;;;4934791;29;20119;-74
2023/02/05 07:25:26;;;;;;;10.20;4.97;;;-0.20;68.20;;;;;;4934694;29;20043;-73
2023/02/05 07:27:53;;;;;;;11.65;4.97;;;0.20;68.40;;;;;;4914435;29;20070;-71
2023/02/05 07:30:21;;;;;;;11.63;4.82;;;0.20;67.70;;;;;;4933593;29;20082;-72
2023/02/05 07:32:50;;;;;;;5.35;4.85;;;0.10;67.80;;;;;;4921800;29;20102;-74
2023/02/05 07:35:24;;;;;;;5.45;4.95;;;0.20;68.30;;;;;;4910705;29;20437;-75
2023/02/05 07:37:51;;;;;;;5.18;4.68;;;0.20;68.50;;;;;;4909503;29;20048;-74
2023/02/05 07:40:27;;;;;;;6.90;4.30;;;-0.30;68.30;;;;;;4917426;29;20134;-73
2023/02/05 07:42:54;;;;;;;6.82;5.43;;;0.00;68.60;;;;;;4959349;23;20050;-74
2023/02/05 07:45:22;;;;;;;5.78;5.00;;;0.50;68.60;;;;;;4936608;29;20396;-73
2023/02/05 07:47:52;;;;;;;5.70;5.10;;;0.60;67.90;;;;;;4933873;23;20044;-73
2023/02/05 07:50:20;;;;;;;6.53;5.20;;;0.50;67.60;;;;;;4917050;29;20050;-73
2023/02/05 07:52:47;;;;;;;5.82;5.25;;;0.40;67.80;;;;;;4898586;29;20429;-73
2023/02/05 07:55:20;;;;;;;5.43;4.93;;;0.60;67.90;;;;;;4939213;29;20035;-72
2023/02/05 07:57:49;;;;;;;6.07;5.47;;;0.60;67.90;;;;;;4904301;29;20547;-72
2023/02/05 08:00:25;;;;;;;5.55;5.05;;;0.60;68.90;;;;;;4915437;29;20044;-74
2023/02/05 08:03:05;;;;;;;5.20;4.63;;;0.30;71.60;;;;;;4902844;29;20056;-73
2023/02/05 08:05:32;;;;;;;5.80;4.88;;;0.70;70.10;;;;;;4901297;29;20474;-74
2023/02/05 08:08:05;;;;;;;5.35;4.82;;;0.30;66.10;;;;;;4901991;29;20048;-74
2023/02/05 08:10:33;;;;;;;9.23;5.07;;;0.40;67.00;;;;;;4901559;29;20057;-74
2023/02/05 08:13:00;;;;;;;6.13;5.53;;;0.40;68.20;;;;;;4906477;29;20127;-74
2023/02/05 08:15:35;;;;;;;5.65;5.10;;;0.80;70.10;;;;;;4909887;29;20044;-74
2023/02/05 08:18:08;;;;;;;10.23;5.50;;;0.20;70.60;;;;;;4904728;29;20095;-72
2023/02/05 08:20:35;;;;;;;5.75;5.25;;;-0.10;71.20;;;;;;4905194;29;20067;-73
2023/02/05 08:23:05;;;;;;;5.43;4.93;;;0.20;70.80;;;;;;4935984;23;20462;-75
2023/02/05 08:25:39;;;;;;;5.65;5.05;;;0.40;70.10;;;;;;4967924;28;20047;-73
2023/02/05 08:28:13;;;;;;;5.93;5.32;;;0.10;71.40;;;;;;4954637;28;20050;-73
2023/02/05 08:30:46;;;;;;;6.53;5.18;;;0.00;73.20;;;;;;4972084;28;20082;-74
2023/02/05 08:33:16;;;;;;;52.85;27.83;;;0.80;71.80;;;;;;4938693;28;20372;-73
2023/02/05 08:35:46;;;;;;;29.10;16.02;;;1.10;72.40;;;;;;4937818;28;20207;-73
2023/02/05 08:38:16;;;;;;;38.13;22.00;;;0.40;72.20;;;;;;4952132;28;20518;-73
2023/02/05 08:40:47;;;;;;;9.30;8.30;;;1.00;71.80;;;;;;4938995;28;20050;-73
2023/02/05 08:43:14;;;;;;;17.70;11.15;;;0.60;69.90;;;;;;4931442;28;20059;-71
2023/02/05 08:45:55;;;;;;;7.85;6.55;;;0.10;73.10;;;;;;4947034;28;20071;-71
2023/02/05 08:48:22;;;;;;;7.95;6.32;;;-0.10;72.20;;;;;;4936918;28;20050;-74
2023/02/05 08:50:49;;;;;;;6.28;5.38;;;0.40;72.00;;;;;;4936389;28;20051;-70
2023/02/05 08:53:20;;;;;;;6.30;5.70;;;0.60;69.80;;;;;;4947358;28;20125;-72
2023/02/05 08:55:54;;;;;;;6.10;4.88;;;0.60;71.10;;;;;;4966241;28;20450;-73
2023/02/05 08:58:22;;;;;;;8.00;5.13;;;0.70;69.40;;;;;;4964671;28;20043;-71
2023/02/05 09:00:49;;;;;;;6.70;5.10;;;0.70;69.70;;;;;;4965802;28;20445;-73
2023/02/05 09:03:16;;;;;;;9.32;5.32;;;0.40;69.20;;;;;;4963975;28;20082;-71
2023/02/05 09:05:46;;;;;;;6.97;5.20;;;0.60;70.00;;;;;;4966087;28;20554;-71
2023/02/05 09:08:13;;;;;;;6.72;4.82;;;0.50;68.50;;;;;;4951358;28;20402;-71
2023/02/05 09:10:43;;;;;;;6.07;4.70;;;-0.10;68.50;;;;;;4968038;28;20035;-71
2023/02/05 09:13:11;;;;;;;5.60;5.00;;;0.10;70.10;;;;;;4948683;28;20710;-71
2023/02/05 09:15:42;;;;;;;5.63;4.90;;;0.50;68.30;;;;;;4966480;28;20510;-71
2023/02/05 09:18:10;;;;;;;5.30;4.70;;;0.50;69.30;;;;;;4949624;28;20043;-70
2023/02/05 09:20:42;;;;;;;5.03;4.53;;;0.50;69.10;;;;;;4931010;28;20477;-69
2023/02/05 09:23:11;;;;;;;5.68;5.07;;;0.40;68.50;;;;;;4950317;28;20051;-71
2023/02/05 09:25:40;;;;;;;5.97;5.30;;;0.40;69.00;;;;;;4937791;28;20051;-72
2023/02/05 09:28:09;;;;;;;5.68;4.60;;;0.60;68.80;;;;;;4932896;28;20046;-70
2023/02/05 09:30:39;;;;;;;5.93;5.33;;;0.80;67.10;;;;;;4935434;28;20543;-71
2023/02/05 09:33:07;;;;;;;5.80;5.10;;;0.80;66.80;;;;;;4935650;28;20047;-73
2023/02/05 09:35:37;;;;;;;4.97;4.32;;;0.40;68.60;;;;;;4935344;28;20055;-70
2023/02/05 09:38:04;;;;;;;7.50;5.15;;;0.20;68.70;;;;;;4922002;28;20058;-71
2023/02/05 09:41:17;;;;;;;5.88;5.28;;;0.30;68.80;;;;;;4940000;28;20394;-71
2023/02/05 09:44:14;;;;;;;8.45;5.60;;;0.50;69.40;;;;;;4923443;28;20058;-72
2023/02/05 09:46:44;;;;;;;7.53;5.35;;;0.90;68.50;;;;;;4956722;28;20047;-69
2023/02/05 09:49:36;;;;;;;5.93;5.10;;;1.00;67.60;;;;;;4951521;28;20090;-71
2023/02/05 09:52:28;;;;;;;6.97;5.18;;;0.60;67.60;;;;;;4935591;28;20094;-70
2023/02/05 09:55:35;;;;;;;5.15;4.57;;;0.30;68.80;;;;;;4952821;28;20438;-70
2023/02/05 09:58:17;;;;;;;5.97;5.15;;;0.80;68.40;;;;;;4922794;28;20413;-72
2023/02/05 10:01:05;;;;;;;6.00;5.40;;;0.90;68.20;;;;;;4956225;28;20130;-72
2023/02/05 10:03:48;;;;;;;5.63;5.03;;;0.50;69.20;;;;;;4919464;29;20399;-74
2023/02/05 10:06:39;;;;;;;6.85;5.03;;;1.00;68.30;;;;;;4938287;28;20058;-73
2023/02/05 10:09:33;;;;;;;5.15;4.65;;;0.80;69.60;;;;;;4955384;28;20050;-71
2023/02/05 10:13:11;;;;;;;10.60;5.10;;;0.70;69.00;;;;;;4921374;28;20078;-69
2023/02/05 10:16:19;;;;;;;7.97;5.22;;;0.40;69.40;;;;;;4936386;28;20287;-69
2023/02/05 10:19:40;;;;;;;5.30;4.80;;;0.70;68.90;;;;;;4933640;28;20074;-74
2023/02/05 10:23:14;;;;;;;6.50;5.22;;;0.30;70.30;;;;;;4930302;28;20059;-71
2023/02/05 10:26:13;;;;;;;5.70;5.20;;;0.60;71.20;;;;;;4928767;28;20634;-74
2023/02/05 10:29:17;;;;;;;6.10;4.93;;;0.70;69.20;;;;;;4938151;28;20043;-72
2023/02/05 10:32:11;;;;;;;7.50;5.25;;;0.50;69.80;;;;;;4952791;28;20051;-73
2023/02/05 10:34:52;;;;;;;6.50;5.90;;;0.40;70.30;;;;;;4951844;28;20054;-74
2023/02/05 10:37:46;;;;;;;5.28;4.78;;;0.60;70.30;;;;;;4952319;28;20391;-74
2023/02/05 10:40:16;;;;;;;5.57;5.07;;;0.40;70.00;;;;;;4936563;28;20040;-73
2023/02/05 10:42:50;;;;;;;5.15;4.65;;;0.40;70.30;;;;;;4937304;29;20503;-72
2023/02/05 10:45:22;;;;;;;12.95;6.90;;;0.40;71.40;;;;;;4935528;29;20520;-73
2023/02/05 10:48:00;;;;;;;7.28;5.38;;;0.10;71.20;;;;;;4935308;28;20055;-70
2023/02/05 10:50:50;;;;;;;5.47;4.97;;;0.20;72.10;;;;;;4949851;28;20708;-74
2023/02/05 10:53:25;;;;;;;8.07;6.45;;;0.10;71.20;;;;;;4937992;29;20047;-75
2023/02/05 10:55:53;;;;;;;5.72;5.15;;;0.20;71.20;;;;;;4936659;29;20039;-74
2023/02/05 10:58:46;;;;;;;5.75;5.13;;;0.30;71.60;;;;;;4932206;29;20051;-75
2023/02/05 11:01:35;;;;;;;6.18;5.13;;;0.50;70.10;;;;;;4926270;29;20079;-73
2023/02/05 11:04:19;;;;;;;6.43;5.28;;;0.40;70.50;;;;;;4919336;29;20399;-76
2023/02/05 11:06:51;;;;;;;5.35;4.85;;;0.20;70.50;;;;;;4952664;28;20063;-74
2023/02/05 11:09:24;;;;;;;5.22;4.72;;;0.40;70.20;;;;;;4935597;29;20125;-72
2023/02/05 11:12:15;;;;;;;5.78;5.03;;;0.40;70.30;;;;;;4935863;28;20051;-74
2023/02/05 11:14:45;;;;;;;5.95;5.32;;;0.50;71.00;;;;;;4951943;28;20129;-75
2023/02/05 11:17:15;;;;;;;6.95;5.90;;;1.00;70.10;;;;;;4952355;28;20047;-73
2023/02/05 11:20:25;;;;;;;6.40;5.53;;;1.20;69.70;;;;;;4969543;23;20043;-73
2023/02/05 11:23:14;;;;;;;6.43;5.18;;;0.60;69.70;;;;;;4930413;29;20135;-73
2023/02/05 11:25:56;;;;;;;5.63;5.13;;;0.60;70.30;;;;;;4918062;29;20427;-73
2023/02/05 11:28:40;;;;;;;9.00;5.60;;;0.80;69.90;;;;;;4937132;29;20058;-74
2023/02/05 11:31:22;;;;;;;5.45;4.95;;;1.10;69.50;;;;;;4934872;29;20054;-73
2023/02/05 11:34:10;;;;;;;6.68;5.25;;;0.50;69.90;;;;;;4933973;23;20098;-72
2023/02/05 11:36:56;;;;;;;7.70;5.90;;;0.60;70.60;;;;;;4943102;28;20090;-75
2023/02/05 11:39:40;;;;;;;5.35;4.85;;;1.00;70.50;;;;;;4923082;28;20551;-74
2023/02/05 11:42:26;;;;;;;6.30;5.05;;;0.80;69.00;;;;;;4923987;29;20063;-74
2023/02/05 11:45:01;;;;;;;5.47;4.97;;;0.50;70.10;;;;;;4945479;28;20051;-74
2023/02/05 11:47:35;;;;;;;5.38;4.88;;;0.70;69.40;;;;;;4946039;28;20078;-76
2023/02/05 11:50:17;;;;;;;6.00;5.15;;;0.90;69.90;;;;;;4928794;28;20602;-75
2023/02/05 11:52:47;;;;;;;6.53;5.82;;;1.20;69.90;;;;;;4948823;28;20043;-74
2023/02/05 11:55:43;;;;;;;8.52;6.60;;;1.40;68.00;;;;;;4928655;28;20050;-74
2023/02/05 11:58:30;;;;;;;6.30;5.70;;;1.00;68.70;;;;;;4961919;28;20058;-74
2023/02/05 12:01:23;;;;;;;5.88;5.28;;;1.30;68.50;;;;;;4923204;28;20460;-72
2023/02/05 12:04:10;;;;;;;6.35;5.35;;;0.90;68.50;;;;;;4961471;28;20118;-74
2023/02/05 12:06:52;;;;;;;6.85;5.40;;;1.00;68.00;;;;;;4923814;28;20047;-73
2023/02/05 12:09:22;;;;;;;6.80;6.07;;;1.30;67.60;;;;;;4928275;28;20047;-73
2023/02/05 12:12:28;;;;;;;7.13;6.03;;;1.40;67.60;;;;;;4924791;28;20105;-73
2023/02/05 12:15:48;;;;;;;6.97;5.80;;;1.50;68.30;;;;;;4947679;28;20053;-74
2023/02/05 12:18:39;;;;;;;6.15;5.55;;;1.80;66.70;;;;;;4940630;28;20051;-72
2023/02/05 12:21:16;;;;;;;6.03;5.38;;;1.00;66.70;;;;;;4923210;28;20047;-72
2023/02/05 12:24:05;;;;;;;;;;;0.70;68.20;;;;;;4921917;28;20163;-74
2023/02/05 12:26:38;;;;;;;5.60;5.05;;;1.10;67.80;;;;;;4928751;28;19926;-73
2023/02/05 12:29:20;;;;;;;5.53;4.93;;;1.20;66.80;;;;;;4930707;28;20050;-75
2023/02/05 12:32:07;;;;;;;5.97;5.15;;;1.20;67.90;;;;;;4923319;28;20062;-72
2023/02/05 12:34:57;;;;;;;11.05;7.97;;;1.10;67.50;;;;;;4898353;29;20055;-70
2023/02/05 12:37:50;;;;;;;7.28;6.00;;;1.20;67.50;;;;;;4900483;29;20054;-69
2023/02/05 12:40:32;;;;;;;8.07;5.55;;;1.20;68.50;;;;;;4898511;29;20064;-70
2023/02/05 12:43:19;;;;;;;17.65;10.75;;;1.50;67.30;;;;;;4940554;29;20054;-70
2023/02/05 12:46:04;;;;;;;39.53;21.73;;;1.90;67.60;;;;;;4939700;29;20040;-71
2023/02/05 12:48:51;;;;;;;6.13;5.40;;;1.60;67.60;;;;;;4934512;29;20122;-71
2023/02/05 12:52:06;;;;;;;7.35;5.60;;;1.10;66.10;;;;;;4919680;29;20082;-71
2023/02/05 12:55:04;;;;;;;5.90;5.30;;;1.50;67.70;;;;;;4880853;29;20130;-69
2023/02/05 12:57:42;;;;;;;7.30;5.28;;;1.70;65.70;;;;;;4922513;29;20047;-70
2023/02/05 13:00:23;;;;;;;6.97;5.30;;;1.70;65.80;;;;;;4925274;29;20150;-69
2023/02/05 13:02:50;;;;;;;;;;;1.50;65.90;;;;;;4908108;29;20103;-72
2023/02/05 13:05:43;;;;;;;7.03;5.70;;;1.60;66.30;;;;;;4917622;29;19922;-72
2023/02/05 13:08:20;;;;;;;8.10;5.50;;;1.40;66.90;;;;;;4901545;29;20053;-71
2023/02/05 13:11:01;;;;;;;7.25;5.68;;;1.40;66.40;;;;;;4925083;29;20070;-72
2023/02/05 13:14:06;;;;;;;6.65;5.45;;;1.20;66.20;;;;;;4896847;29;20051;-75
2023/02/05 13:17:40;;;;;;;6.78;5.32;;;1.50;66.30;;;;;;4921469;29;20055;-72
2023/02/05 13:28:38;;;;;;;6.05;5.45;;;1.60;66.00;;;;;;4878560;29;20044;-70
2023/02/05 13:32:11;;;;;;;6.53;5.10;;;1.40;65.40;;;;;;4920517;29;20516;-70
2023/02/05 13:35:39;;;;;;;5.38;4.88;;;1.40;65.20;;;;;;4905305;29;20139;-70
2023/02/05 13:39:01;;;;;;;6.05;5.47;;;1.60;65.80;;;;;;4898197;23;20404;-74
2023/02/05 13:41:44;;;;;;;28.60;15.23;;;1.60;65.10;;;;;;4915662;29;20057;-73
2023/02/05 13:44:18;;;;;;;86.03;41.30;;;1.60;65.40;;;;;;4913587;29;20046;-74
2023/02/05 13:46:46;;;;;;;11.30;8.82;;;1.80;65.80;;;;;;4900535;29;20040;-71
2023/02/05 13:49:39;;;;;;;8.07;7.28;;;1.90;64.20;;;;;;4930522;28;20070;-71
2023/02/05 13:52:43;;;;;;;6.05;5.40;;;1.70;65.00;;;;;;4933385;29;20045;-72